Time;durP1;ratioP1;P1;durP2;ratioP2;P2;SDS_P1;SDS_P2;PMS_P1;PMS_P2;Temp;Humidity;BMP_temperature;BMP_pressure;BME280_temperature;BME280_humidity;BME280_pressure;Samples;Min_cycle;Max_cycle;Signal;HPM_P1;HPM_P2
2022/10/15 00:00:48;;;;;;;5.65;5.10;;;;;;;;;;5113667;28;20201;-74
2022/10/15 00:03:17;;;;;;;5.15;4.68;;;;;;;;;;5113663;28;20193;-73
2022/10/15 00:05:45;;;;;;;5.72;5.03;;;;;;;;;;5113328;28;20204;-72
2022/10/15 00:08:12;;;;;;;5.78;4.13;;;;;;;;;;5113219;28;20224;-72
2022/10/15 00:10:38;;;;;;;4.88;4.30;;;;;;;;;;5113749;28;20221;-73
2022/10/15 00:13:05;;;;;;;4.93;4.25;;;;;;;;;;5112919;28;20200;-73
2022/10/15 00:15:32;;;;;;;5.68;4.18;;;;;;;;;;5112947;28;20666;-74
2022/10/15 00:17:58;;;;;;;6.43;4.47;;;;;;;;;;5113371;28;20657;-73
2022/10/15 00:20:25;;;;;;;5.30;4.65;;;;;;;;;;5113043;28;20674;-73
2022/10/15 00:22:53;;;;;;;6.25;4.70;;;;;;;;;;5112682;28;20248;-73
2022/10/15 00:25:19;;;;;;;4.63;4.22;;;;;;;;;;5112916;28;20193;-71
2022/10/15 00:27:46;;;;;;;5.40;4.65;;;;;;;;;;5113129;28;20193;-73
2022/10/15 00:30:13;;;;;;;4.78;4.38;;;;;;;;;;5113024;28;20585;-74
2022/10/15 00:32:39;;;;;;;4.97;4.53;;;;;;;;;;5113771;28;20201;-72
2022/10/15 00:35:06;;;;;;;6.00;4.28;;;;;;;;;;5113466;28;20200;-72
2022/10/15 00:37:32;;;;;;;5.15;3.83;;;;;;;;;;5113335;28;20606;-72
2022/10/15 00:40:00;;;;;;;5.60;4.63;;;;;;;;;;5113693;28;20262;-72
2022/10/15 00:42:27;;;;;;;4.45;4.05;;;;;;;;;;5112965;28;20249;-73
2022/10/15 00:44:55;;;;;;;5.63;4.18;;;;;;;;;;5112707;28;20201;-74
2022/10/15 00:47:34;;;;;;;6.43;4.35;;;;;;;;;;5112721;28;20254;-73
2022/10/15 00:50:03;;;;;;;4.50;4.20;;;;;;;;;;5112597;28;20227;-73
2022/10/15 00:52:33;;;;;;;5.38;4.88;;;;;;;;;;5112114;28;20717;-73
2022/10/15 00:55:03;;;;;;;4.80;4.40;;;;;;;;;;5112889;28;20274;-73
2022/10/15 00:57:30;;;;;;;4.70;4.18;;;;;;;;;;5112715;28;20203;-73
2022/10/15 00:59:58;;;;;;;4.50;4.20;;;;;;;;;;5112011;28;20625;-74
2022/10/15 01:02:24;;;;;;;4.60;4.18;;;;;;;;;;5111982;28;20558;-74
2022/10/15 01:04:51;;;;;;;6.63;4.55;;;;;;;;;;5112366;28;20201;-73
2022/10/15 01:07:17;;;;;;;5.18;4.78;;;;;;;;;;5112129;28;20221;-73
2022/10/15 01:09:45;;;;;;;4.72;4.28;;;;;;;;;;5112002;28;20205;-74
2022/10/15 01:12:17;;;;;;;4.78;4.43;;;;;;;;;;5112165;28;20262;-73
2022/10/15 01:14:48;;;;;;;5.25;4.85;;;;;;;;;;5111753;28;20196;-73
2022/10/15 01:17:20;;;;;;;4.65;4.22;;;;;;;;;;5111826;28;20205;-74
2022/10/15 01:20:07;;;;;;;7.43;4.65;;;;;;;;;;5112347;28;20204;-74
2022/10/15 01:22:41;;;;;;;5.20;4.80;;;;;;;;;;5112380;28;20197;-74
2022/10/15 01:25:13;;;;;;;6.55;4.78;;;;;;;;;;5112188;28;20256;-72
2022/10/15 01:27:43;;;;;;;4.72;4.28;;;;;;;;;;5112062;28;20197;-74
2022/10/15 01:30:21;;;;;;;6.65;4.28;;;;;;;;;;5111876;28;20224;-73
2022/10/15 01:32:48;;;;;;;9.13;4.05;;;;;;;;;;5112038;28;20254;-73
2022/10/15 01:35:20;;;;;;;4.07;3.58;;;;;;;;;;5112168;28;20286;-72
2022/10/15 01:37:52;;;;;;;4.88;4.20;;;;;;;;;;5112013;28;20196;-74
2022/10/15 01:40:20;;;;;;;7.88;4.22;;;;;;;;;;5111923;28;20751;-74
2022/10/15 01:42:54;;;;;;;4.00;3.70;;;;;;;;;;5111422;28;20197;-72
2022/10/15 01:45:25;;;;;;;4.53;4.05;;;;;;;;;;5111675;28;20193;-74
2022/10/15 01:47:53;;;;;;;5.93;3.75;;;;;;;;;;5111860;28;20197;-73
2022/10/15 01:50:21;;;;;;;4.32;4.03;;;;;;;;;;5111589;28;20661;-73
2022/10/15 01:52:49;;;;;;;6.35;4.20;;;;;;;;;;5111437;28;20289;-73
2022/10/15 01:55:16;;;;;;;4.60;4.07;;;;;;;;;;5105816;28;20205;-73
2022/10/15 01:57:44;;;;;;;5.03;4.22;;;;;;;;;;5111505;28;20193;-73
2022/10/15 02:00:11;;;;;;;5.18;4.68;;;;;;;;;;5102092;28;20197;-72
2022/10/15 02:02:39;;;;;;;5.43;4.82;;;;;;;;;;5091231;28;20755;-74
2022/10/15 02:05:07;;;;;;;4.40;4.00;;;;;;;;;;5089935;28;20680;-74
2022/10/15 02:07:39;;;;;;;5.65;4.47;;;;;;;;;;5090296;28;20354;-73
2022/10/15 02:10:10;;;;;;;4.25;3.95;;;;;;;;;;5089292;28;20625;-74
2022/10/15 02:12:41;;;;;;;3.90;3.65;;;;;;;;;;5089780;28;20235;-75
2022/10/15 02:15:10;;;;;;;4.45;4.15;;;;;;;;;;5089750;28;20247;-73
2022/10/15 02:17:41;;;;;;;4.47;4.13;;;;;;;;;;5088924;28;20198;-74
2022/10/15 02:20:11;;;;;;;4.47;3.90;;;;;;;;;;5090911;28;20197;-73
2022/10/15 02:22:41;;;;;;;8.07;4.28;;;;;;;;;;5091127;28;20198;-73
2022/10/15 02:25:09;;;;;;;4.82;4.22;;;;;;;;;;5090757;28;20193;-72
2022/10/15 02:27:37;;;;;;;6.55;4.18;;;;;;;;;;5089264;28;20198;-73
2022/10/15 02:30:04;;;;;;;4.93;3.80;;;;;;;;;;5094195;28;20709;-73
2022/10/15 02:32:31;;;;;;;4.93;4.13;;;;;;;;;;5094409;28;20198;-73
2022/10/15 02:35:00;;;;;;;5.53;4.82;;;;;;;;;;5094903;28;20198;-73
2022/10/15 02:37:28;;;;;;;4.78;4.38;;;;;;;;;;5094824;28;20202;-73
2022/10/15 02:39:54;;;;;;;5.80;4.57;;;;;;;;;;5095152;28;20250;-72
2022/10/15 02:42:21;;;;;;;5.20;4.70;;;;;;;;;;5094672;28;20636;-72
2022/10/15 02:44:47;;;;;;;5.03;4.63;;;;;;;;;;5094040;28;20201;-73
2022/10/15 02:47:14;;;;;;;4.78;4.32;;;;;;;;;;5093944;28;20198;-74
2022/10/15 02:49:40;;;;;;;4.75;4.25;;;;;;;;;;5093992;28;20242;-72
2022/10/15 02:52:08;;;;;;;4.47;4.18;;;;;;;;;;5094307;28;20234;-72
2022/10/15 02:54:35;;;;;;;4.80;4.40;;;;;;;;;;5094394;28;20198;-73
2022/10/15 02:57:01;;;;;;;4.07;3.78;;;;;;;;;;5094998;28;20204;-73
2022/10/15 02:59:29;;;;;;;4.55;3.97;;;;;;;;;;5094822;28;20687;-73
2022/10/15 03:01:55;;;;;;;4.93;4.43;;;;;;;;;;5094161;28;20250;-71
2022/10/15 03:04:22;;;;;;;4.85;4.45;;;;;;;;;;5094260;28;20720;-72
2022/10/15 03:06:48;;;;;;;5.72;4.53;;;;;;;;;;5094559;28;20711;-73
2022/10/15 03:09:16;;;;;;;5.38;4.25;;;;;;;;;;5094728;28;20258;-73
2022/10/15 03:11:42;;;;;;;4.85;4.53;;;;;;;;;;5093981;28;20652;-73
2022/10/15 03:14:09;;;;;;;4.57;4.28;;;;;;;;;;5094305;28;20255;-72
2022/10/15 03:16:35;;;;;;;7.85;4.50;;;;;;;;;;5094814;28;20197;-74
2022/10/15 03:19:02;;;;;;;5.43;4.10;;;;;;;;;;5094327;28;20198;-73
2022/10/15 03:21:29;;;;;;;6.28;4.65;;;;;;;;;;5097012;28;20667;-74
2022/10/15 03:23:56;;;;;;;5.20;4.10;;;;;;;;;;5095768;28;20198;-73
2022/10/15 03:26:24;;;;;;;5.15;4.70;;;;;;;;;;5094358;28;20255;-73
2022/10/15 03:28:51;;;;;;;6.07;4.85;;;;;;;;;;5093964;28;20194;-73
2022/10/15 03:31:17;;;;;;;7.20;4.78;;;;;;;;;;5093475;28;20278;-72
2022/10/15 03:33:44;;;;;;;5.25;4.85;;;;;;;;;;5093402;28;20201;-72
2022/10/15 03:36:10;;;;;;;5.18;4.75;;;;;;;;;;5093497;28;20740;-73
2022/10/15 03:38:37;;;;;;;5.28;4.80;;;;;;;;;;5093366;28;20197;-72
2022/10/15 03:41:03;;;;;;;5.05;4.68;;;;;;;;;;5092894;28;20247;-73
2022/10/15 03:43:31;;;;;;;5.07;4.68;;;;;;;;;;5094177;28;20206;-73
2022/10/15 03:46:01;;;;;;;6.32;5.25;;;;;;;;;;5093364;28;20201;-73
2022/10/15 03:48:27;;;;;;;5.43;5.00;;;;;;;;;;5093216;28;20255;-74
2022/10/15 03:50:54;;;;;;;6.15;5.28;;;;;;;;;;5094111;28;20302;-74
2022/10/15 03:53:20;;;;;;;6.57;4.68;;;;;;;;;;5093328;28;20287;-74
2022/10/15 03:55:47;;;;;;;5.07;4.78;;;;;;;;;;5093429;28;20197;-74
2022/10/15 03:58:13;;;;;;;5.15;4.75;;;;;;;;;;5093400;28;20201;-74
2022/10/15 04:00:43;;;;;;;6.13;5.28;;;;;;;;;;5093781;28;20198;-73
2022/10/15 04:03:09;;;;;;;7.55;4.88;;;;;;;;;;5092555;28;20740;-73
2022/10/15 04:05:35;;;;;;;6.93;5.10;;;;;;;;;;5092853;28;20631;-74
2022/10/15 04:08:02;;;;;;;5.22;4.78;;;;;;;;;;5093218;28;20298;-74
2022/10/15 04:10:29;;;;;;;5.50;5.10;;;;;;;;;;5093085;28;20194;-74
2022/10/15 04:12:56;;;;;;;6.03;5.15;;;;;;;;;;5093148;28;20197;-73
2022/10/15 04:15:22;;;;;;;5.45;5.05;;;;;;;;;;5092438;28;20197;-73
2022/10/15 04:17:54;;;;;;;5.55;4.45;;;;;;;11.97;nan;95369.00;5092848;28;20252;-74
2022/10/15 04:20:20;;;;;;;6.47;5.40;;;;;;;;;;5092928;28;20194;-73
2022/10/15 04:22:46;;;;;;;7.18;5.25;;;;;;;;;;5093426;28;20201;-74
2022/10/15 04:25:13;;;;;;;6.10;4.95;;;;;;;;;;5092972;28;20197;-74
2022/10/15 04:27:39;;;;;;;6.97;5.03;;;;;;;;;;5092710;28;20564;-73
2022/10/15 04:30:06;;;;;;;5.22;4.88;;;;;;;;;;5092558;28;20258;-74
2022/10/15 04:32:33;;;;;;;8.23;5.28;;;;;;;;;;5092050;28;20226;-73
2022/10/15 04:35:01;;;;;;;9.43;6.10;;;;;;;;;;5092418;28;20202;-74
2022/10/15 04:37:27;;;;;;;8.45;5.22;;;;;;;;;;5092394;28;20251;-74
2022/10/15 04:39:54;;;;;;;9.00;5.63;;;;;;;;;;5092162;28;20254;-74
2022/10/15 04:42:20;;;;;;;5.53;4.72;;;;;;;;;;5092766;28;20201;-73
2022/10/15 04:44:47;;;;;;;8.43;5.15;;;;;;;;;;5093008;28;20201;-73
2022/10/15 04:47:13;;;;;;;5.25;4.90;;;;;;;;;;5091718;28;20198;-73
2022/10/15 04:49:40;;;;;;;6.88;5.72;;;;;;;;;;5092751;28;20255;-73
2022/10/15 04:52:08;;;;;;;6.10;5.40;;;;;;;;;;5091268;28;20237;-73
2022/10/15 04:54:34;;;;;;;6.35;5.75;;;;;;;;;;5092351;28;20206;-73
2022/10/15 04:57:01;;;;;;;6.18;5.60;;;;;;;;;;5092287;28;20193;-72
2022/10/15 04:59:27;;;;;;;6.50;5.65;;;;;;;;;;5092334;28;20675;-73
2022/10/15 05:01:54;;;;;;;7.47;5.60;;;;;;;;;;5091763;28;20209;-73
2022/10/15 05:04:20;;;;;;;9.63;5.72;;;;;;;;;;5092356;28;20201;-74
2022/10/15 05:06:47;;;;;;;6.47;5.57;;;;;;;;;;5092132;28;20247;-73
2022/10/15 05:09:14;;;;;;;7.13;5.38;;;;;;;;;;5091930;28;20744;-73
2022/10/15 05:11:41;;;;;;;10.00;5.95;;;;;;;;;;5092168;28;20217;-73
2022/10/15 05:14:07;;;;;;;7.53;6.07;;;;;;;;;;5091828;28;20194;-72
2022/10/15 05:16:34;;;;;;;6.20;5.35;;;;;;;;;;5091371;28;20581;-73
2022/10/15 05:19:01;;;;;;;8.73;6.00;;;;;;;;;;5091926;28;20255;-73
2022/10/15 05:21:28;;;;;;;8.10;6.32;;;;;;;;;;5091446;28;20652;-72
2022/10/15 05:23:55;;;;;;;10.00;5.90;;;;;;;;;;5091970;28;20197;-72
2022/10/15 05:26:24;;;;;;;6.80;6.22;;;;;;;;;;5091070;28;20740;-73
2022/10/15 05:28:51;;;;;;;7.10;6.50;;;;;;;;;;5092347;28;20197;-73
2022/10/15 05:31:19;;;;;;;8.93;6.22;;;;;;;;;;5090960;28;20221;-74
2022/10/15 05:33:47;;;;;;;9.05;6.70;;;;;;;;;;5091518;28;20197;-73
2022/10/15 05:36:16;;;;;;;6.03;5.53;;;;;;;;;;5091700;28;20193;-73
2022/10/15 05:38:42;;;;;;;6.22;5.63;;;;;;;;;;5091699;28;20198;-73
2022/10/15 05:41:09;;;;;;;7.28;5.97;;;;;;;;;;5091173;28;20259;-73
2022/10/15 05:43:36;;;;;;;6.22;5.25;;;;;;;;;;5091548;28;20258;-74
2022/10/15 05:46:03;;;;;;;10.25;6.25;;;;;;;;;;5091215;28;20251;-75
2022/10/15 05:48:29;;;;;;;11.00;6.05;;;;;;;;;;5092315;28;20251;-74
2022/10/15 05:51:00;;;;;;;8.52;5.90;;;;;;;;;;5091628;28;20247;-73
2022/10/15 05:53:27;;;;;;;6.15;5.65;;;;;;;;;;5092204;28;20314;-73
2022/10/15 05:55:53;;;;;;;6.30;5.70;;;;;;;;;;5091527;28;20198;-73
2022/10/15 05:58:20;;;;;;;5.70;5.20;;;;;;;;;;5091601;28;20635;-73
2022/10/15 06:01:03;;;;;;;8.38;5.68;;;;;;;;;;5092589;28;20197;-72
2022/10/15 06:03:30;;;;;;;7.93;5.22;;;;;;;;;;5091104;28;20242;-72
2022/10/15 06:05:56;;;;;;;8.32;5.80;;;;;;;;;;5095572;28;20251;-74
2022/10/15 06:08:24;;;;;;;10.63;6.90;;;;;;;;;;5097016;28;20648;-74
2022/10/15 06:10:51;;;;;;;5.22;4.82;;;;;;;;;;5096396;28;20197;-73
2022/10/15 06:13:17;;;;;;;6.68;5.45;;;;;;;;;;5095245;28;20221;-74
2022/10/15 06:15:44;;;;;;;5.63;4.95;;;;;;;;;;5095348;28;20201;-72
2022/10/15 06:18:14;;;;;;;7.07;4.72;;;;;;;;;;5094974;28;20785;-73
2022/10/15 06:20:41;;;;;;;4.82;4.38;;;;;;;;;;5095962;28;20201;-73
2022/10/15 06:23:09;;;;;;;8.30;5.07;;;;;;;;;;5095325;28;20262;-74
2022/10/15 06:25:36;;;;;;;5.82;5.07;;;;;;;;;;5094825;28;20558;-72
2022/10/15 06:28:02;;;;;;;7.43;5.18;;;;;;;;;;5095783;28;20204;-75
2022/10/15 06:30:29;;;;;;;6.88;6.28;;;;;;;;;;5095461;28;20228;-73
2022/10/15 06:32:57;;;;;;;6.38;5.78;;;;;;;;;;5095511;28;20232;-72
2022/10/15 06:35:29;;;;;;;12.93;6.10;;;;;;;;;;5095562;28;20205;-73
2022/10/15 06:37:55;;;;;;;9.70;6.93;;;;;;;;;;5094854;28;20651;-73
2022/10/15 06:40:22;;;;;;;8.85;6.82;;;;;;;;;;5094839;28;20668;-73
2022/10/15 06:42:48;;;;;;;9.45;6.28;;;;;;;;;;5094662;28;20197;-74
2022/10/15 06:45:15;;;;;;;7.00;6.10;;;;;;;;;;5094848;28;20255;-73
2022/10/15 06:47:41;;;;;;;11.90;8.13;;;;;;;;;;5095055;28;20197;-76
2022/10/15 06:50:08;;;;;;;10.15;7.22;;;;;;;;;;5094650;28;20205;-73
2022/10/15 06:52:36;;;;;;;10.43;7.20;;;;;;;;;;5094815;28;20233;-72
2022/10/15 06:55:03;;;;;;;10.25;7.32;;;;;;;;;;5094536;28;20247;-74
2022/10/15 06:57:30;;;;;;;13.40;7.97;;;;;;;;;;5094829;28;20201;-74
2022/10/15 06:59:56;;;;;;;7.22;6.43;;;;;;;;;;5094194;28;20202;-73
2022/10/15 07:02:23;;;;;;;6.30;5.78;;;;;;;;;;5094758;28;20753;-73
2022/10/15 07:04:50;;;;;;;10.43;6.88;;;;;;;;;;5094606;28;20201;-73
2022/10/15 07:07:16;;;;;;;7.40;6.55;;;;;;;;;;5094938;28;20225;-74
2022/10/15 07:09:45;;;;;;;8.95;6.10;;;;;;;;;;5094481;28;20205;-74
2022/10/15 07:12:12;;;;;;;7.15;6.22;;;;;;;;;;5094328;28;20275;-74
2022/10/15 07:14:38;;;;;;;7.18;6.47;;;;;;;;;;5094861;28;20197;-73
2022/10/15 07:17:05;;;;;;;8.38;6.70;;;;;;;;;;5094555;28;20193;-72
2022/10/15 07:19:31;;;;;;;12.40;6.65;;;;;;;;;;5094919;28;20690;-73
2022/10/15 07:21:57;;;;;;;7.18;6.57;;;;;;;;;;5095255;28;20198;-74
2022/10/15 07:24:24;;;;;;;7.10;6.10;;;;;;;;;;5094760;28;20227;-73
2022/10/15 07:26:52;;;;;;;6.53;5.90;;;;;;;;;;5095490;28;20258;-74
2022/10/15 07:29:18;;;;;;;10.57;6.22;;;;;;;;;;5096166;28;20209;-72
2022/10/15 07:31:45;;;;;;;5.88;5.40;;;;;;;;;;5094754;28;20197;-74
2022/10/15 07:34:12;;;;;;;7.53;5.35;;;;;;;;;;5095012;28;20201;-73
2022/10/15 07:36:38;;;;;;;5.63;5.15;;;;;;;;;;5095190;28;20205;-72
2022/10/15 07:39:05;;;;;;;6.22;5.28;;;;;;;;;;5094124;28;20201;-73
2022/10/15 07:41:31;;;;;;;5.10;4.57;;;;;;;;;;5093972;28;20747;-73
2022/10/15 07:43:59;;;;;;;7.90;4.82;;;;;;;;;;5094057;28;20197;-73
2022/10/15 07:46:26;;;;;;;5.10;4.68;;;;;;;;;;5093987;28;20255;-72
2022/10/15 07:48:52;;;;;;;5.63;5.05;;;;;;;;;;5094009;28;20293;-73
2022/10/15 07:51:19;;;;;;;5.43;4.93;;;;;;;;;;5093012;28;20189;-73
2022/10/15 07:53:46;;;;;;;7.43;5.57;;;;;;;;;;5093806;28;20278;-73
2022/10/15 07:56:13;;;;;;;8.10;4.90;;;;;;;;;;5093638;28;20251;-73
2022/10/15 07:58:40;;;;;;;6.85;5.68;;;;;;;;;;5094078;28;20263;-73
2022/10/15 08:01:09;;;;;;;6.32;4.72;;;;;;;;;;5093588;28;20209;-72
2022/10/15 08:03:36;;;;;;;8.50;4.95;;;;;;;;;;5093357;28;20190;-74
2022/10/15 08:06:03;;;;;;;5.40;5.00;;;;;;;;;;5093260;28;20197;-73
2022/10/15 08:08:30;;;;;;;4.72;4.43;;;;;;;;;;5096222;28;20755;-74
2022/10/15 08:10:57;;;;;;;8.02;5.10;;;;;;;;;;5097457;28;20288;-74
2022/10/15 08:13:24;;;;;;;6.05;4.63;;;;;;;;;;5093216;28;20778;-73
2022/10/15 08:15:50;;;;;;;5.50;5.05;;;;;;;;;;5094585;28;20227;-71
2022/10/15 08:18:18;;;;;;;6.25;5.00;;;;;;;;;;5092844;28;20202;-73
2022/10/15 08:20:45;;;;;;;9.18;5.80;;;;;;;;;;5092540;28;20194;-72
2022/10/15 08:23:14;;;;;;;5.32;4.85;;;;;;;;;;5092572;28;20667;-72
2022/10/15 08:25:41;;;;;;;4.25;3.95;;;;;;;;;;5092563;28;20201;-72
2022/10/15 08:28:08;;;;;;;4.82;4.38;;;;;;;;;;5092329;28;20312;-73
2022/10/15 08:30:35;;;;;;;5.80;4.32;;;;;;;;;;5092607;28;20201;-72
2022/10/15 08:33:01;;;;;;;4.60;4.30;;;;;;;;;;5092420;28;20283;-73
2022/10/15 08:35:34;;;;;;;5.25;4.57;;;;;;;;;;5092350;28;20201;-73
2022/10/15 08:38:00;;;;;;;6.22;4.10;;;;;;;;;;5092470;28;20197;-74
2022/10/15 08:40:28;;;;;;;4.25;3.88;;;;;;;;;;5092877;28;20266;-73
2022/10/15 08:42:54;;;;;;;4.85;4.32;;;;;;;;;;5092434;28;20276;-72
2022/10/15 08:45:24;;;;;;;4.82;4.50;;;;;;;;;;5092185;28;20209;-73
2022/10/15 08:47:51;;;;;;;5.68;5.15;;;;;;;;;;5091596;28;20202;-73
2022/10/15 08:50:20;;;;;;;7.72;5.07;;;;;;;;;;5092397;28;20676;-73
2022/10/15 08:52:49;;;;;;;6.90;4.72;;;;;;;;;;5091892;28;20233;-75
2022/10/15 08:55:16;;;;;;;11.05;7.55;;;;;;;;;;5091670;28;20205;-72
2022/10/15 08:57:46;;;;;;;7.28;5.00;;;;;;;;;;5092071;28;20639;-73
2022/10/15 09:00:14;;;;;;;5.22;4.82;;;;;;;;;;5091989;28;20198;-73
2022/10/15 09:02:43;;;;;;;5.97;5.38;;;;;;;;;;5092285;28;20201;-74
2022/10/15 09:05:19;;;;;;;5.63;5.13;;;;;;;;;;5091766;28;20695;-74
2022/10/15 09:07:50;;;;;;;7.32;5.28;;;;;;;;;;5092860;28;20217;-74
2022/10/15 09:10:18;;;;;;;5.25;4.85;;;;;;;;;;5092481;28;20251;-74
2022/10/15 09:12:47;;;;;;;5.18;4.88;;;;;;;;;;5091942;28;20221;-74
2022/10/15 09:15:15;;;;;;;5.30;4.90;;;;;;;;;;5092288;28;20202;-73
2022/10/15 09:17:43;;;;;;;7.47;4.80;;;;;;;;;;5101758;28;20223;-74
2022/10/15 09:20:14;;;;;;;5.95;4.72;;;;;;;;;;5110526;28;20251;-74
2022/10/15 09:22:41;;;;;;;5.75;4.97;;;;;;;;;;5110561;28;20193;-74
2022/10/15 09:25:15;;;;;;;6.00;5.47;;;;;;;;;;5110789;28;20569;-74
2022/10/15 09:27:42;;;;;;;5.78;4.35;;;;;;;;;;5110937;28;20244;-74
2022/10/15 09:30:17;;;;;;;6.25;4.88;;;;;;;;;;5111057;28;20252;-74
2022/10/15 09:32:45;;;;;;;6.10;4.72;;;;;;;;;;5110668;28;20228;-73
2022/10/15 09:35:15;;;;;;;5.82;5.32;;;;;;;;;;5111842;28;20201;-74
2022/10/15 09:37:48;;;;;;;6.70;4.65;;;;;;;;;;5112040;28;20197;-73
2022/10/15 09:40:34;;;;;;;6.25;5.70;;;;;;;;;;5118653;28;20294;-73
2022/10/15 09:43:01;;;;;;;4.80;4.50;;;;;;;;;;5117525;28;20253;-74
2022/10/15 09:45:27;;;;;;;6.53;4.90;;;;;;;;;;5119093;28;20204;-72
2022/10/15 09:47:58;;;;;;;5.18;4.72;;;;;;;;;;5118506;28;20208;-72
2022/10/15 09:50:28;;;;;;;8.40;4.57;;;;;;;;;;5118779;28;20642;-73
2022/10/15 09:53:05;;;;;;;4.80;4.45;;;;;;;;;;5118175;28;20238;-72
2022/10/15 09:55:36;;;;;;;4.47;4.18;;;;;;;;;;5118632;28;20200;-73
2022/10/15 09:58:04;;;;;;;7.13;4.75;;;;;;;;;;5118396;28;20196;-73
2022/10/15 10:00:46;;;;;;;4.97;4.57;;;;;;;;;;5119010;28;20279;-73
2022/10/15 10:03:14;;;;;;;5.38;5.00;;;;;;;;;;5118482;28;20189;-74
2022/10/15 10:05:42;;;;;;;5.00;4.60;;;;;;;;;;5118626;28;20666;-73
2022/10/15 10:08:10;;;;;;;4.57;4.25;;;;;;;;;;5118724;28;20220;-73
2022/10/15 10:10:38;;;;;;;4.05;3.75;;;;;;;;;;5118422;28;20231;-69
2022/10/15 10:13:07;;;;;;;10.90;4.40;;;;;;;;;;5117583;28;20216;-68
2022/10/15 10:15:34;;;;;;;5.82;4.50;;;;;;;;;;5117925;28;20254;-67
2022/10/15 10:18:01;;;;;;;4.90;4.60;;;;;;;;;;5118048;28;20246;-68
2022/10/15 10:20:28;;;;;;;5.13;4.40;;;;;;;;;;5117537;28;20196;-67
2022/10/15 10:22:55;;;;;;;4.82;4.43;;;;;;;;;;5117445;28;20197;-66
2022/10/15 10:25:33;;;;;;;8.38;4.50;;;;;;;;;;5117636;28;20197;-66
2022/10/15 10:28:05;;;;;;;7.72;5.03;;;;;;;;;;5117652;28;20253;-67
2022/10/15 10:30:36;;;;;;;4.47;4.07;;;;;;;19.87;nan;95399.25;5117998;28;20197;-67
2022/10/15 10:33:03;;;;;;;5.60;4.32;;;;;;;;;;5117596;28;20239;-67
2022/10/15 10:35:33;;;;;;;4.90;4.20;;;;;;;;;;5117776;28;20254;-66
2022/10/15 10:38:00;;;;;;;4.93;3.75;;;;;;;;;;5117333;28;20204;-67
2022/10/15 10:40:28;;;;;;;5.35;4.05;;;;;;;;;;5117801;28;20192;-68
2022/10/15 10:45:57;;;;;;;4.47;4.07;;;;;;;;;;5165899;27;21057;-67
2022/10/15 10:48:25;;;;;;;6.25;4.00;;;;;;;;;;5149934;27;20271;-68
2022/10/15 10:51:07;;;;;;;4.28;3.97;;;;;;;;;;5149675;27;20191;-67
2022/10/15 10:53:34;;;;;;;3.90;3.60;;;;;;;;;;5147245;27;20203;-67
2022/10/15 10:56:01;;;;;;;4.80;4.30;;;;;;;;;;5149584;27;20199;-67
2022/10/15 10:58:33;;;;;;;4.32;3.92;;;;;;;;;;5149921;27;20698;-66
2022/10/15 11:01:01;;;;;;;4.07;3.60;;;;;;;;;;5149597;27;20195;-66
2022/10/15 11:03:32;;;;;;;5.05;4.05;;;;;;;;;;5149669;27;20200;-69
2022/10/15 11:06:01;;;;;;;6.75;3.58;;;;;;;;;;5149092;27;20586;-66
2022/10/15 11:08:35;;;;;;;4.28;3.88;;;;;;;;;;5149392;27;20203;-66
2022/10/15 11:11:07;;;;;;;8.35;4.07;;;;;;;;;;5149707;27;20199;-66
2022/10/15 11:13:41;;;;;;;3.67;3.13;;;;;;;;;;5149566;27;20192;-66
2022/10/15 11:16:12;;;;;;;3.97;3.55;;;;;;;;;;5149575;27;20255;-68
2022/10/15 11:18:53;;;;;;;3.50;3.30;;;;;;;;;;5149675;27;20271;-68
2022/10/15 11:21:23;;;;;;;4.13;3.25;;;;;;;;;;5146160;27;20196;-68
2022/10/15 11:24:14;;;;;;;3.65;3.38;;;;;;;;;;5146796;27;20700;-67
2022/10/15 11:26:48;;;;;;;4.63;3.33;;;;;;;;;;5131308;27;20200;-68
2022/10/15 11:29:18;;;;;;;4.85;3.50;;;;;;;;;;5147182;27;20199;-68
2022/10/15 11:31:50;;;;;;;5.03;3.50;;;;;;;;;;5148142;27;20200;-68
2022/10/15 11:34:22;;;;;;;3.03;2.83;;;;;;;;;;5147218;27;20255;-68
2022/10/15 11:36:56;;;;;;;5.20;2.80;;;;;;;;;;5146766;27;20263;-66
2022/10/15 11:39:34;;;;;;;4.00;3.33;;;;;;;;;;5145797;27;20195;-66
2022/10/15 11:42:08;;;;;;;4.80;3.53;;;;;;;;;;5145688;27;20227;-67
2022/10/15 11:44:38;;;;;;;3.00;2.80;;;;;;;;;;5145500;27;20227;-66
2022/10/15 11:47:13;;;;;;;10.07;3.60;;;;;;;;;;5145699;27;20701;-66
2022/10/15 11:49:43;;;;;;;3.25;3.05;;;;;;;;;;5145757;27;20248;-66
2022/10/15 11:52:24;;;;;;;4.15;3.75;;;;;;;;;;5145339;27;20192;-67
2022/10/15 11:54:59;;;;;;;4.28;3.08;;;;;;;;;;5146963;27;20195;-69
2022/10/15 11:57:27;;;;;;;3.50;3.20;;;;;;;;;;5133069;27;20200;-67
2022/10/15 11:59:55;;;;;;;4.43;2.55;;;;;;;;;;5132479;27;20196;-67
2022/10/15 12:02:29;;;;;;;3.85;2.83;;;;;;;;;;5132172;27;20196;-67
2022/10/15 12:04:58;;;;;;;3.38;2.50;;;;;;;;;;5132226;27;20281;-67
2022/10/15 12:07:27;;;;;;;2.90;2.70;;;;;;;;;;5131898;27;20280;-67
2022/10/15 12:09:57;;;;;;;5.68;3.20;;;;;;;;;;5132560;27;20577;-67
2022/10/15 12:12:30;;;;;;;3.28;2.97;;;;;;;;;;5133327;27;20199;-68
2022/10/15 12:15:03;;;;;;;2.78;2.58;;;;;;;;;;5134027;27;20192;-68
2022/10/15 12:17:37;;;;;;;2.95;2.78;;;;;;;;;;5133702;27;20204;-67
2022/10/15 12:20:08;;;;;;;4.10;2.45;;;;;;;;;;5134585;27;20197;-67
2022/10/15 12:22:36;;;;;;;2.80;2.60;;;;;;;;;;5134451;27;20204;-68
2022/10/15 12:25:03;;;;;;;2.80;2.60;;;;;;;;;;5133666;27;20220;-67
2022/10/15 12:27:33;;;;;;;2.50;2.40;;;;;;;;;;5134218;27;20192;-69
2022/10/15 12:30:18;;;;;;;3.50;2.72;;;;;;;;;;5134409;27;20223;-66
2022/10/15 12:32:47;;;;;;;2.53;2.20;;;;;;;;;;5133954;27;20257;-73
2022/10/15 12:35:21;;;;;;;2.67;2.47;;;;;;;;;;5134571;27;20192;-73
2022/10/15 12:37:49;;;;;;;3.03;2.33;;;;;;;;;;5134690;27;20259;-73
2022/10/15 12:40:25;;;;;;;2.88;2.65;;;;;;;;;;5134933;27;20200;-72
2022/10/15 12:42:53;;;;;;;3.15;2.85;;;;;;;;;;5135113;27;20199;-73
2022/10/15 12:45:20;;;;;;;3.20;2.72;;;;;;;;;;5134015;27;20236;-74
2022/10/15 12:47:49;;;;;;;2.65;2.53;;;;;;;;;;5133671;27;20196;-74
2022/10/15 12:50:20;;;;;;;9.43;2.97;;;;;;;;;;5134661;27;20625;-75
2022/10/15 12:53:00;;;;;;;3.22;2.78;;;;;;;;;;5134797;27;20200;-74
2022/10/15 12:55:28;;;;;;;3.35;3.05;;;;;;;;;;5134888;27;20196;-74
2022/10/15 12:57:57;;;;;;;5.47;2.10;;;;;;;;;;5134982;27;20219;-73
2022/10/15 13:00:28;;;;;;;3.88;2.00;;;;;;;;;;5134240;27;20632;-73
2022/10/15 13:02:59;;;;;;;4.55;2.53;;;;;;;;;;5134288;27;20206;-73
2022/10/15 13:05:27;;;;;;;3.00;2.15;;;;;;;;;;5134554;27;20277;-72
2022/10/15 13:07:54;;;;;;;8.32;2.78;;;;;;;;;;5133386;27;20212;-72
2022/10/15 13:10:22;;;;;;;2.90;2.70;;;;;;;;;;5134578;27;20257;-72
2022/10/15 13:12:51;;;;;;;4.18;3.78;;;;;;;;;;5133998;27;20204;-73
2022/10/15 13:15:18;;;;;;;4.82;2.40;;;;;;;;;;5133952;27;20195;-72
2022/10/15 13:17:45;;;;;;;2.72;2.53;;;;;;;;;;5133310;27;20627;-73
2022/10/15 13:20:29;;;;;;;3.55;2.47;;;;;;;;;;5133643;27;20200;-72
2022/10/15 13:23:07;;;;;;;2.40;2.20;;;;;;;;;;5133566;27;20700;-73
2022/10/15 13:25:33;;;;;;;8.88;3.13;;;;;;;;;;5133267;27;20220;-73
2022/10/15 13:28:00;;;;;;;4.45;3.00;;;;;;;;;;5133404;27;20575;-73
2022/10/15 13:30:27;;;;;;;4.35;2.80;;;;;;;;;;5133789;27;20253;-72
2022/10/15 13:32:54;;;;;;;3.70;3.40;;;;;;;;;;5133334;27;20199;-73
2022/10/15 13:35:24;;;;;;;3.83;2.60;;;;;;;;;;5132901;27;20192;-73
2022/10/15 13:37:52;;;;;;;4.43;2.95;;;;;;;;;;5133245;27;20196;-72
2022/10/15 13:40:20;;;;;;;5.72;3.47;;;;;;;;;;5133507;27;20200;-71
2022/10/15 13:42:58;;;;;;;3.63;3.33;;;;;;;;;;5133663;27;20196;-72
2022/10/15 13:45:24;;;;;;;4.65;2.42;;;;;;;;;;5133099;27;20913;-71
2022/10/15 13:47:52;;;;;;;2.83;2.63;;;;;;;;;;5133209;27;20202;-72
2022/10/15 13:50:20;;;;;;;4.38;2.55;;;;;;;;;;5133125;27;21020;-72
2022/10/15 13:52:50;;;;;;;3.40;2.40;;;;;;;;;;5132926;27;20192;-72
2022/10/15 13:55:18;;;;;;;2.40;2.20;;;;;;;;;;5133463;27;20200;-74
2022/10/15 13:57:46;;;;;;;2.53;2.33;;;;;;;;;;5131966;27;20204;-72
2022/10/15 14:00:23;;;;;;;2.83;2.45;;;;;;;;;;5132413;27;20287;-72
2022/10/15 14:03:04;;;;;;;2.20;2.10;;;;;;;;;;5132094;27;20192;-72
2022/10/15 14:05:31;;;;;;;2.72;2.58;;;;;;;;;;5132340;27;20224;-72
2022/10/15 14:07:59;;;;;;;2.83;2.55;;;;;;;;;;5132383;27;20265;-73
2022/10/15 14:10:25;;;;;;;7.68;2.55;;;;;;;;;;5132601;27;20253;-73
2022/10/15 14:12:52;;;;;;;4.57;2.53;;;;;;;;;;5132492;27;20220;-71
2022/10/15 14:15:37;;;;;;;7.18;2.72;;;;;;;;;;5132620;27;20245;-73
2022/10/15 14:18:04;;;;;;;2.78;2.58;;;;;;;;;;5132126;27;20200;-72
2022/10/15 14:20:30;;;;;;;2.30;2.20;;;;;;;;;;5132623;27;20632;-72
2022/10/15 14:22:57;;;;;;;2.30;2.10;;;;;;;;;;5132667;27;20193;-72
2022/10/15 14:25:26;;;;;;;2.50;2.30;;;;;;;;;;5132759;27;20655;-71
2022/10/15 14:27:52;;;;;;;6.50;2.85;;;;;;;;;;5132144;27;20196;-71
2022/10/15 14:30:22;;;;;;;3.22;2.90;;;;;;;;;;5132757;27;20249;-72
2022/10/15 14:32:50;;;;;;;2.75;2.55;;;;;;;;;;5132266;27;20617;-73
2022/10/15 14:35:23;;;;;;;4.13;2.28;;;;;;;;;;5131977;27;21022;-73
2022/10/15 14:37:59;;;;;;;3.60;2.47;;;;;;;;;;5131397;27;20204;-70
2022/10/15 14:40:27;;;;;;;5.68;2.88;;;;;;;;;;5132301;27;20240;-73
2022/10/15 14:43:11;;;;;;;4.93;2.65;;;;;;;;;;5132192;28;20207;-71
2022/10/15 14:45:41;;;;;;;3.75;2.45;;;;;;;;;;5131500;27;20236;-70
2022/10/15 14:48:09;;;;;;;3.90;3.08;;;;;;;;;;5131932;28;20659;-71
2022/10/15 14:50:40;;;;;;;3.80;2.53;;;;;;;;;;5132341;27;20208;-71
2022/10/15 14:53:09;;;;;;;3.03;2.13;;;;;;;;;;5131857;28;20625;-72